Terminal Aerodrome Forecast
Issued by NWS

Home | Current Version | Previous Version | Text Only | Print | Product List | Glossary On
Versions: 1 2 3 4 5 6 7 8 9 10 11 12 13 14 15 16 17 18 19
285
FTAK31 PAJN 201729
TAFAKT
TAF
PAKT 201729Z 2018/2118 31005KT P6SM SCT020 BKN060
     FM210000 32004KT P6SM SCT050
     FM210400 31011G20KT P6SM SKC
      AMD LTD TO CLD VIS AND WIND 2106/2115=

USA.gov is the U.S. government's official web portal to all federal, state and local government web resources and services.